Time;durP1;ratioP1;P1;durP2;ratioP2;P2;SDS_P1;SDS_P2;PMS_P1;PMS_P2;Temp;Humidity;BMP_temperature;BMP_pressure;BME280_temperature;BME280_humidity;BME280_pressure;Samples;Min_cycle;Max_cycle;Signal;HPM_P1;HPM_P2
2021/11/20 00:01:48;;;;;;;16.15;12.18;;;9.60;88.20;;;;;;4957823;28;20027;-58
2021/11/20 00:04:14;;;;;;;13.73;10.48;;;9.60;88.30;;;;;;4957546;28;20027;-59
2021/11/20 00:06:44;;;;;;;11.55;9.77;;;9.70;88.40;;;;;;4957516;28;20032;-58
2021/11/20 00:09:13;;;;;;;12.95;9.75;;;9.60;88.30;;;;;;4956716;28;20456;-59
2021/11/20 00:11:40;;;;;;;10.88;9.30;;;9.60;88.20;;;;;;4957340;28;20035;-59
2021/11/20 00:14:10;;;;;;;11.60;9.90;;;9.60;88.30;;;;;;4957304;28;20027;-59
2021/11/20 00:16:36;;;;;;;11.23;8.90;;;9.60;88.50;;;;;;4957505;28;20467;-59
2021/11/20 00:19:03;;;;;;;12.02;9.40;;;9.60;88.50;;;;;;4957344;28;20027;-59
2021/11/20 00:21:34;;;;;;;12.27;9.70;;;9.60;88.50;;;;;;4957144;28;20551;-58
2021/11/20 00:24:03;;;;;;;12.82;9.45;;;9.60;88.60;;;;;;4956145;28;20049;-61
2021/11/20 00:26:34;;;;;;;12.20;9.02;;;9.60;88.60;;;;;;4957069;28;20035;-58
2021/11/20 00:29:17;;;;;;;11.18;9.27;;;9.60;88.70;;;;;;4957489;28;20032;-58
2021/11/20 00:31:51;;;;;;;13.50;9.32;;;9.60;88.80;;;;;;4937951;29;20042;-57
2021/11/20 00:34:20;;;;;;;11.07;8.70;;;9.60;89.40;;;;;;4937869;29;20063;-59
2021/11/20 00:36:47;;;;;;;11.77;9.60;;;9.60;88.80;;;;;;4937895;29;20028;-59
2021/11/20 00:39:16;;;;;;;10.98;8.75;;;9.60;88.80;;;;;;4945608;29;20499;-59
2021/11/20 00:41:42;;;;;;;11.20;8.85;;;9.60;88.80;;;;;;4957138;28;20380;-59
2021/11/20 00:44:08;;;;;;;11.30;8.88;;;9.60;88.90;;;;;;4956826;28;20023;-58
2021/11/20 00:46:34;;;;;;;12.02;9.63;;;9.60;89.00;;;;;;4956749;28;20029;-59
2021/11/20 00:49:00;;;;;;;10.63;8.27;;;9.60;88.80;;;;;;4955995;28;20472;-58
2021/11/20 00:51:28;;;;;;;10.38;8.50;;;9.60;89.00;;;;;;4956657;28;20023;-59
2021/11/20 00:53:55;;;;;;;12.05;9.07;;;9.70;89.00;;;;;;4956721;28;20562;-59
2021/11/20 00:56:23;;;;;;;16.08;9.70;;;9.70;89.20;;;;;;4955920;28;20114;-59
2021/11/20 00:58:49;;;;;;;11.35;9.98;;;9.70;89.20;;;;;;4956882;28;20034;-59
2021/11/20 01:01:28;;;;;;;13.07;9.82;;;9.70;89.20;;;;;;4956455;28;20060;-61
2021/11/20 01:03:54;;;;;;;12.40;9.65;;;9.70;89.40;;;;;;4956790;28;20031;-57
2021/11/20 01:06:20;;;;;;;12.10;9.18;;;9.70;89.30;;;;;;4957029;28;20028;-59
2021/11/20 01:08:50;;;;;;;13.23;9.82;;;9.80;89.30;;;;;;4956289;28;20055;-59
2021/11/20 01:11:41;;;;;;;13.38;9.85;;;9.80;89.20;;;;;;4956359;28;20433;-60
2021/11/20 01:14:10;;;;;;;12.65;9.18;;;9.80;89.30;;;;;;4955883;28;20031;-59
2021/11/20 01:16:37;;;;;;;11.98;8.85;;;9.80;89.10;;;;;;4956215;28;20046;-59
2021/11/20 01:19:04;;;;;;;13.93;10.48;;;9.80;89.10;;;;;;4955857;28;20039;-59
2021/11/20 01:21:32;;;;;;;14.70;10.30;;;9.80;89.10;;;;;;4955952;28;20035;-59
2021/11/20 01:23:58;;;;;;;12.45;9.60;;;9.80;89.30;;;;;;4956074;28;20031;-58
2021/11/20 01:26:24;;;;;;;12.98;9.98;;;9.80;89.30;;;;;;4955939;28;20050;-59
2021/11/20 01:28:54;;;;;;;14.45;10.10;;;9.80;89.30;;;;;;4954781;28;20042;-59
2021/11/20 01:31:23;;;;;;;15.32;10.73;;;9.80;89.20;;;;;;4956008;28;20039;-59
2021/11/20 01:33:49;;;;;;;13.45;10.00;;;9.90;89.10;;;;;;4956193;28;20035;-57
2021/11/20 01:36:19;;;;;;;11.15;8.88;;;9.90;89.20;;;;;;4955831;28;20027;-57
2021/11/20 01:38:46;;;;;;;12.57;8.77;;;9.90;89.10;;;;;;4955622;28;20031;-59
2021/11/20 01:41:13;;;;;;;12.65;9.07;;;9.90;89.20;;;;;;4955706;28;20027;-59
2021/11/20 01:43:39;;;;;;;10.93;8.65;;;9.90;89.40;;;;;;4955727;28;20023;-59
2021/11/20 01:46:13;;;;;;;14.02;8.85;;;9.90;89.50;;;;;;4955010;28;20038;-59
2021/11/20 01:49:04;;;;;;;12.70;9.80;;;9.90;89.40;;;;;;4955714;28;20042;-58
2021/11/20 01:51:37;;;;;;;11.25;8.98;;;9.90;89.50;;;;;;4955680;28;20031;-58
2021/11/20 01:54:19;;;;;;;12.63;9.30;;;9.90;89.80;;;;;;4955759;28;20041;-58
2021/11/20 01:56:56;;;;;;;11.75;9.73;;;9.90;90.00;;;;;;4948686;28;20031;-58
2021/11/20 01:59:46;;;;;;;11.50;8.18;;;9.90;89.90;;;;;;4954631;29;20030;-57
2021/11/20 02:02:38;;;;;;;12.52;8.48;;;9.90;89.90;;;;;;4954100;28;20041;-59
2021/11/20 02:05:12;;;;;;;11.35;8.65;;;9.90;90.00;;;;;;4954621;29;20067;-57
2021/11/20 02:08:01;;;;;;;10.30;7.70;;;9.90;90.00;;;;;;4955261;28;20034;-59
2021/11/20 02:10:31;;;;;;;11.77;8.68;;;9.90;90.10;;;;;;4955308;28;20071;-57
2021/11/20 02:13:02;;;;;;;11.73;8.43;;;9.80;90.10;;;;;;4955528;28;20505;-58
2021/11/20 02:15:30;;;;;;;10.45;8.68;;;9.80;90.20;;;;;;4955428;28;20034;-57
2021/11/20 02:17:58;;;;;;;8.82;7.35;;;9.90;90.20;;;;;;4954771;28;20071;-58
2021/11/20 02:20:41;;;;;;;9.85;7.82;;;9.90;90.30;;;;;;4955118;28;20059;-59
2021/11/20 02:23:06;;;;;;;9.15;7.32;;;9.90;90.30;;;;;;4955175;28;20027;-58
2021/11/20 02:25:32;;;;;;;10.82;7.88;;;9.90;90.30;;;;;;4955114;28;20423;-58
2021/11/20 02:27:59;;;;;;;9.90;7.63;;;9.90;90.40;;;;;;4953845;28;20181;-55
2021/11/20 02:30:32;;;;;;;9.02;7.13;;;9.90;90.40;;;;;;4947831;28;20392;-58
2021/11/20 02:33:08;;;;;;;9.07;6.63;;;9.90;90.40;;;;;;4954144;29;20027;-59
2021/11/20 02:35:55;;;;;;;8.38;6.68;;;9.90;90.40;;;;;;4954355;28;20034;-58
2021/11/20 02:38:37;;;;;;;8.23;6.05;;;9.90;90.30;;;;;;4954943;28;20027;-56
2021/11/20 02:41:03;;;;;;;;;;;9.90;90.40;;;;;;4955154;28;20047;-57
2021/11/20 02:43:34;;;;;;;7.45;5.75;;;9.90;90.30;;;;;;4954917;28;19907;-58
2021/11/20 02:46:00;;;;;;;9.05;6.07;;;9.90;90.40;;;;;;4954897;28;20039;-59
2021/11/20 02:48:26;;;;;;;7.90;6.43;;;10.00;90.50;;;;;;4955397;28;20107;-59
2021/11/20 02:50:57;;;;;;;8.52;6.38;;;9.90;90.40;;;;;;4954826;28;20087;-59
2021/11/20 02:53:36;;;;;;;6.97;5.80;;;10.00;90.50;;;;;;4954404;28;20502;-59
2021/11/20 02:56:06;;;;;;;7.55;5.57;;;10.00;90.50;;;;;;4954772;28;20089;-59
2021/11/20 02:58:33;;;;;;;7.65;6.00;;;10.00;90.50;;;;;;4954779;28;20054;-59
2021/11/20 03:01:05;;;;;;;7.13;5.75;;;10.10;90.60;;;;;;4955157;28;20074;-59
2021/11/20 03:03:32;;;;;;;6.55;4.70;;;10.10;90.50;;;;;;4954915;28;20484;-58
2021/11/20 03:05:58;;;;;;;7.72;5.57;;;10.10;90.50;;;;;;4954478;28;20162;-58
2021/11/20 03:08:24;;;;;;;7.57;5.43;;;10.10;90.50;;;;;;4954491;28;20024;-58
2021/11/20 03:10:50;;;;;;;6.10;4.55;;;10.20;90.60;;;;;;4953604;28;20038;-59
2021/11/20 03:13:17;;;;;;;6.63;4.75;;;10.20;90.60;;;;;;4956562;28;20109;-58
2021/11/20 03:15:43;;;;;;;6.05;4.57;;;10.20;90.60;;;;;;4958496;28;20090;-56
2021/11/20 03:18:09;;;;;;;5.15;4.18;;;10.30;90.70;;;;;;4958466;28;20063;-59
2021/11/20 03:20:35;;;;;;;5.47;4.88;;;10.30;90.60;;;;;;4958304;28;20113;-58
2021/11/20 03:23:17;;;;;;;6.60;4.68;;;10.40;90.60;;;;;;4958297;28;20597;-59
2021/11/20 03:25:42;;;;;;;5.80;4.60;;;10.40;90.60;;;;;;4957346;28;20479;-59
2021/11/20 03:28:09;;;;;;;4.55;3.85;;;10.40;90.60;;;;;;4958247;28;20059;-59
2021/11/20 03:30:35;;;;;;;5.28;4.32;;;10.50;90.60;;;;;;4958055;28;20028;-58
2021/11/20 03:33:01;;;;;;;4.97;4.35;;;10.50;90.50;;;;;;4958274;28;20031;-59
2021/11/20 03:35:28;;;;;;;6.05;4.70;;;10.50;90.50;;;;;;4958106;28;20040;-59
2021/11/20 03:37:53;;;;;;;5.47;4.50;;;10.50;90.60;;;;;;4958037;28;20033;-58
2021/11/20 03:40:21;;;;;;;5.45;4.50;;;10.50;90.60;;;;;;4957772;28;20474;-58
2021/11/20 03:42:47;;;;;;;4.93;4.25;;;10.60;90.60;;;;;;4957362;28;20073;-59
2021/11/20 03:45:14;;;;;;;5.57;4.75;;;10.60;90.60;;;;;;4957913;28;20031;-59
2021/11/20 03:47:40;;;;;;;5.72;4.75;;;10.70;90.60;;;;;;4958160;28;20107;-58
2021/11/20 03:50:09;;;;;;;6.55;5.10;;;10.70;90.50;;;;;;4958059;28;20161;-59
2021/11/20 03:52:35;;;;;;;5.78;4.97;;;10.70;90.50;;;;;;4957648;28;20027;-59
2021/11/20 03:55:00;;;;;;;6.85;5.30;;;10.70;90.50;;;;;;4957716;28;20101;-59
2021/11/20 03:57:26;;;;;;;6.72;5.38;;;10.80;90.50;;;;;;4957736;28;20031;-59
2021/11/20 03:59:52;;;;;;;6.80;5.15;;;10.80;90.50;;;;;;4956620;28;20042;-59
2021/11/20 04:02:18;;;;;;;7.10;5.32;;;10.80;90.60;;;;;;4943603;28;20055;-59
2021/11/20 04:04:44;;;;;;;6.50;5.40;;;10.80;90.50;;;;;;4936300;29;20106;-58
2021/11/20 04:07:10;;;;;;;8.25;5.32;;;10.80;90.80;;;;;;4956011;29;20027;-57
2021/11/20 04:09:35;;;;;;;6.90;5.70;;;10.90;90.50;;;;;;4957676;28;20019;-59
2021/11/20 04:12:01;;;;;;;6.85;5.65;;;10.90;90.50;;;;;;4957350;28;20028;-57
2021/11/20 04:14:27;;;;;;;6.72;5.35;;;10.90;90.50;;;;;;4957697;28;20561;-58
2021/11/20 04:16:54;;;;;;;7.60;5.35;;;10.90;90.50;;;;;;4956320;28;20049;-59
2021/11/20 04:19:21;;;;;;;5.60;4.97;;;10.90;90.50;;;;;;4957457;28;20042;-59
2021/11/20 04:21:48;;;;;;;7.10;5.93;;;10.90;90.50;;;;;;4957133;28;20041;-58
2021/11/20 04:24:14;;;;;;;7.72;5.72;;;11.00;90.50;;;;;;4956018;28;20093;-58
2021/11/20 04:26:40;;;;;;;7.07;5.50;;;11.00;90.50;;;;;;4957156;28;20411;-58
2021/11/20 04:29:06;;;;;;;6.70;5.22;;;11.00;90.50;;;;;;4956255;28;20025;-57
2021/11/20 04:31:33;;;;;;;7.50;5.95;;;11.00;90.50;;;;;;4957177;28;20431;-59
2021/11/20 04:33:59;;;;;;;7.07;5.60;;;11.00;90.50;;;;;;4956322;28;20038;-59
2021/11/20 04:36:26;;;;;;;7.35;5.85;;;11.00;90.60;;;;;;4956966;28;20027;-58
2021/11/20 04:38:52;;;;;;;6.70;5.60;;;11.10;90.60;;;;;;4956953;28;20479;-57
2021/11/20 04:41:19;;;;;;;7.07;5.18;;;11.10;90.60;;;;;;4956913;28;20023;-59
2021/11/20 04:43:47;;;;;;;6.78;5.43;;;11.20;90.60;;;;;;4956787;28;20023;-57
2021/11/20 04:46:15;;;;;;;6.88;5.38;;;11.20;90.60;;;;;;4956881;28;20019;-57
2021/11/20 04:48:41;;;;;;;7.13;5.57;;;11.20;90.90;;;;;;4957001;28;20039;-56
2021/11/20 04:51:07;;;;;;;6.30;5.22;;;11.20;90.70;;;;;;4955747;28;20038;-58
2021/11/20 04:53:36;;;;;;;6.88;5.35;;;11.30;90.90;;;;;;4956712;28;20098;-59
2021/11/20 04:56:03;;;;;;;6.68;5.28;;;11.30;90.90;;;;;;4956932;28;20506;-59
2021/11/20 04:58:29;;;;;;;6.35;4.97;;;11.30;90.90;;;;;;4956581;28;20023;-59
2021/11/20 05:00:57;;;;;;;6.95;5.28;;;11.30;90.90;;;;;;4956473;28;20416;-59
2021/11/20 05:03:23;;;;;;;7.05;5.10;;;11.40;91.00;;;;;;4956794;28;20514;-58
2021/11/20 05:05:51;;;;;;;6.53;5.03;;;11.40;91.00;;;;;;4956423;28;20064;-59
2021/11/20 05:08:20;;;;;;;5.75;4.43;;;11.40;91.00;;;;;;4955625;28;20512;-57
2021/11/20 05:10:47;;;;;;;6.60;5.00;;;11.40;91.10;;;;;;4956500;28;20034;-59
2021/11/20 05:13:13;;;;;;;6.03;4.65;;;11.40;91.30;;;;;;4956593;28;20024;-59
2021/11/20 05:15:41;;;;;;;6.82;4.90;;;11.40;91.10;;;;;;4956337;28;20069;-58
2021/11/20 05:18:07;;;;;;;9.23;5.07;;;11.50;91.20;;;;;;4956229;28;20032;-58
2021/11/20 05:20:34;;;;;;;7.40;5.68;;;11.50;91.30;;;;;;4956472;28;20408;-58
2021/11/20 05:22:59;;;;;;;7.40;5.28;;;11.50;91.20;;;;;;4956083;28;20034;-59
2021/11/20 05:25:25;;;;;;;6.18;4.50;;;11.50;91.20;;;;;;4950388;28;20028;-59
2021/11/20 05:27:54;;;;;;;6.30;4.80;;;11.50;91.20;;;;;;4936918;29;20075;-58
2021/11/20 05:30:29;;;;;;;5.70;4.57;;;11.60;91.20;;;;;;4937135;29;20117;-58
2021/11/20 05:32:57;;;;;;;5.43;4.47;;;11.60;91.20;;;;;;4937119;29;20436;-59
2021/11/20 05:35:25;;;;;;;4.80;4.00;;;11.60;91.20;;;;;;4936293;29;20043;-58
2021/11/20 05:37:51;;;;;;;5.18;4.43;;;11.60;91.20;;;;;;4950177;29;20110;-58
2021/11/20 05:40:17;;;;;;;6.03;4.75;;;11.70;91.10;;;;;;4955576;28;20376;-57
2021/11/20 05:42:57;;;;;;;5.75;4.18;;;11.70;91.10;;;;;;4954797;28;20086;-59
2021/11/20 05:45:27;;;;;;;6.85;4.47;;;11.70;91.10;;;;;;4955570;28;20043;-58
2021/11/20 05:47:53;;;;;;;8.13;5.13;;;11.70;91.10;;;;;;4955560;28;20069;-58
2021/11/20 05:50:21;;;;;;;5.80;4.38;;;11.70;91.00;;;;;;4955652;28;20027;-59
2021/11/20 05:52:48;;;;;;;5.88;4.38;;;11.70;91.10;;;;;;4955545;28;20027;-59
2021/11/20 05:55:16;;;;;;;6.25;4.30;;;11.80;91.00;;;;;;4955603;28;20039;-57
2021/11/20 05:57:41;;;;;;;5.00;4.28;;;11.80;91.00;;;;;;4954647;28;20081;-60
2021/11/20 06:00:11;;;;;;;4.93;3.92;;;11.80;91.00;;;;;;4953406;28;20035;-57
2021/11/20 06:02:37;;;;;;;5.60;3.95;;;11.90;90.90;;;;;;4953230;29;20030;-58
2021/11/20 06:05:05;;;;;;;5.20;3.72;;;11.90;90.90;;;;;;4954535;28;20126;-59
2021/11/20 06:07:30;;;;;;;5.35;3.60;;;11.90;90.90;;;;;;4947549;29;20030;-58
2021/11/20 06:09:56;;;;;;;6.18;4.50;;;11.90;90.80;;;;;;4954709;28;20027;-58
2021/11/20 06:12:23;;;;;;;4.97;3.72;;;11.90;90.80;;;;;;4954807;28;20023;-56
2021/11/20 06:14:49;;;;;;;5.70;3.80;;;12.00;90.80;;;;;;4954913;28;20031;-59
2021/11/20 06:17:14;;;;;;;4.38;3.60;;;12.00;90.80;;;;;;4954198;28;20023;-58
2021/11/20 06:19:40;;;;;;;5.10;3.88;;;12.00;90.80;;;;;;4952403;28;20498;-57
2021/11/20 06:22:06;;;;;;;5.00;3.92;;;12.00;90.70;;;;;;4948953;29;20415;-58
2021/11/20 06:24:32;;;;;;;4.85;3.50;;;12.00;90.70;;;;;;4945270;29;20119;-59
2021/11/20 06:26:57;;;;;;;4.78;3.40;;;12.10;90.70;;;;;;4935316;29;20094;-58
2021/11/20 06:29:24;;;;;;;4.10;3.40;;;12.10;90.70;;;;;;4948662;29;20492;-58
2021/11/20 06:31:50;;;;;;;4.40;3.58;;;12.10;90.60;;;;;;4948856;29;20027;-59
2021/11/20 06:34:17;;;;;;;4.75;3.78;;;12.10;90.60;;;;;;4948723;28;20088;-58
2021/11/20 06:36:43;;;;;;;5.03;3.92;;;12.10;90.60;;;;;;4953825;28;20035;-59
2021/11/20 06:39:09;;;;;;;4.80;3.88;;;12.10;90.60;;;;;;4954263;28;20078;-59
2021/11/20 06:41:35;;;;;;;5.85;3.80;;;12.20;90.60;;;;;;4954749;28;20027;-58
2021/11/20 06:44:02;;;;;;;5.50;3.55;;;12.20;90.50;;;;;;4954515;28;20464;-59
2021/11/20 06:46:28;;;;;;;6.40;3.42;;;12.20;90.40;;;;;;4954603;28;20029;-58
2021/11/20 06:48:53;;;;;;;4.50;3.50;;;12.20;90.40;;;;;;4952786;28;20031;-59
2021/11/20 06:51:19;;;;;;;3.90;3.03;;;12.20;90.30;;;;;;4954607;28;20034;-59
2021/11/20 06:53:46;;;;;;;5.28;3.00;;;12.30;90.30;;;;;;4952667;28;20055;-58
2021/11/20 06:56:15;;;;;;;4.15;2.95;;;12.30;90.20;;;;;;4954575;28;20050;-59
2021/11/20 06:58:54;;;;;;;4.50;3.00;;;12.30;90.20;;;;;;4947686;28;20023;-59
2021/11/20 07:01:23;;;;;;;2.95;2.67;;;12.30;90.20;;;;;;4952154;29;20391;-59
2021/11/20 07:04:11;;;;;;;3.80;2.60;;;12.30;90.00;;;;;;4941276;28;20090;-59
2021/11/20 07:06:45;;;;;;;4.03;2.80;;;12.30;89.70;;;;;;4992603;28;20066;-59
2021/11/20 07:09:11;;;;;;;3.90;2.55;;;12.40;89.70;;;;;;4990537;28;20022;-58
2021/11/20 07:11:37;;;;;;;3.67;2.95;;;12.40;89.70;;;;;;4984616;28;20026;-59
2021/11/20 07:14:04;;;;;;;4.38;2.60;;;12.40;89.40;;;;;;4973332;28;20133;-58
2021/11/20 07:16:30;;;;;;;2.95;2.60;;;12.40;89.10;;;;;;4989709;28;20032;-59
2021/11/20 07:18:56;;;;;;;3.22;2.80;;;12.40;88.80;;;;;;4987578;28;20030;-59
2021/11/20 07:21:25;;;;;;;2.78;2.50;;;12.50;88.50;;;;;;4992449;28;20498;-56
2021/11/20 07:24:01;;;;;;;3.80;2.97;;;12.50;88.70;;;;;;4992937;28;20473;-59
2021/11/20 07:26:28;;;;;;;4.38;2.60;;;12.50;88.40;;;;;;4992559;28;20114;-59
2021/11/20 07:28:54;;;;;;;3.97;2.70;;;12.50;88.30;;;;;;4975247;28;20030;-58
2021/11/20 07:31:20;;;;;;;2.60;2.40;;;12.60;88.10;;;;;;4988027;28;20030;-58
2021/11/20 07:33:46;;;;;;;3.65;2.95;;;12.60;87.70;;;;;;4986939;28;20541;-58
2021/11/20 07:36:12;;;;;;;5.00;2.80;;;12.60;87.70;;;;;;4990866;28;20113;-59
2021/11/20 07:38:45;;;;;;;3.97;2.80;;;12.60;87.60;;;;;;4992786;28;20037;-59
2021/11/20 07:41:12;;;;;;;3.78;2.97;;;12.60;87.40;;;;;;4990130;28;20116;-59
2021/11/20 07:43:38;;;;;;;4.30;3.20;;;12.70;87.40;;;;;;4988352;28;20019;-58
2021/11/20 07:46:08;;;;;;;5.20;3.40;;;12.70;87.20;;;;;;4991266;28;20069;-59
2021/11/20 07:48:36;;;;;;;6.25;3.38;;;12.70;86.60;;;;;;4981925;28;20027;-59
2021/11/20 07:51:04;;;;;;;3.67;3.17;;;12.70;86.50;;;;;;4958003;28;20783;-57
2021/11/20 07:53:30;;;;;;;4.25;3.20;;;12.70;86.30;;;;;;4974019;28;20588;-59
2021/11/20 07:55:56;;;;;;;4.90;3.50;;;12.70;86.20;;;;;;4988461;28;20038;-59
2021/11/20 07:58:22;;;;;;;8.13;3.60;;;12.70;86.20;;;;;;4996474;28;20034;-58
2021/11/20 08:00:49;;;;;;;4.93;3.42;;;12.70;85.90;;;;;;4992032;28;20467;-59
2021/11/20 08:03:15;;;;;;;5.05;3.40;;;12.70;85.70;;;;;;4985592;28;20065;-58
2021/11/20 08:05:41;;;;;;;5.75;3.60;;;12.60;85.60;;;;;;4993215;28;20050;-57
2021/11/20 08:08:07;;;;;;;4.95;3.25;;;12.70;85.70;;;;;;4988543;28;20442;-57
2021/11/20 08:10:34;;;;;;;3.47;3.15;;;12.60;85.50;;;;;;4980870;28;20026;-57
2021/11/20 08:13:00;;;;;;;4.88;3.10;;;12.70;85.30;;;;;;4984703;28;20054;-59
2021/11/20 08:15:28;;;;;;;6.47;4.53;;;12.70;85.30;;;;;;4976409;28;20065;-58
2021/11/20 08:17:53;;;;;;;3.83;3.10;;;12.70;85.30;;;;;;4975867;28;20030;-59
2021/11/20 08:20:23;;;;;;;5.30;3.33;;;12.70;85.10;;;;;;4991865;28;20036;-56
2021/11/20 08:22:49;;;;;;;4.28;3.25;;;12.80;84.60;;;;;;4995161;28;20113;-58
2021/11/20 08:25:20;;;;;;;3.85;2.95;;;12.80;84.30;;;;;;4992199;28;20494;-59
2021/11/20 08:27:46;;;;;;;4.88;3.13;;;12.80;84.60;;;;;;4981563;28;20050;-59
2021/11/20 08:30:15;;;;;;;3.20;2.90;;;12.80;83.60;;;;;;4990977;28;20054;-59
2021/11/20 08:32:46;;;;;;;6.00;3.38;;;12.90;83.30;;;;;;4991143;28;20037;-59
2021/11/20 08:35:13;;;;;;;3.80;3.10;;;12.90;83.00;;;;;;4994061;28;20146;-59
2021/11/20 08:37:39;;;;;;;5.00;2.97;;;12.90;82.50;;;;;;4982765;28;20344;-59
2021/11/20 08:40:08;;;;;;;6.50;3.00;;;13.00;82.50;;;;;;4977891;28;20181;-59
2021/11/20 08:42:36;;;;;;;5.47;3.17;;;13.00;82.30;;;;;;4982796;28;20027;-58
2021/11/20 08:45:06;;;;;;;4.88;3.13;;;13.00;81.50;;;;;;4994968;28;20096;-59
2021/11/20 08:47:32;;;;;;;5.50;3.42;;;13.10;80.70;;;;;;4981576;28;20018;-59
2021/11/20 08:49:58;;;;;;;6.03;3.15;;;13.20;79.90;;;;;;4994987;28;20023;-59
2021/11/20 08:52:24;;;;;;;4.78;3.15;;;13.20;79.60;;;;;;4994123;28;20018;-58
2021/11/20 08:54:56;;;;;;;4.43;2.90;;;13.20;79.20;;;;;;4994860;28;20137;-58
2021/11/20 08:57:22;;;;;;;4.72;3.30;;;13.30;78.90;;;;;;4982970;28;20070;-59
2021/11/20 08:59:48;;;;;;;10.20;3.10;;;13.30;78.70;;;;;;4991241;28;20023;-57
2021/11/20 09:02:22;;;;;;;5.55;2.85;;;13.40;78.10;;;;;;4986349;28;20030;-59
2021/11/20 09:05:40;;;;;;;4.32;2.67;;;13.40;77.80;;;;;;4986474;28;20026;-59
2021/11/20 09:08:23;;;;;;;4.32;3.00;;;13.50;77.80;;;;;;4959088;28;20042;-59
2021/11/20 09:11:19;;;;;;;7.93;3.38;;;13.50;77.30;;;;;;4974182;28;20031;-58
2021/11/20 09:14:10;;;;;;;5.03;2.70;;;13.60;76.90;;;;;;4990241;28;20153;-59
2021/11/20 09:16:38;;;;;;;5.75;3.35;;;13.60;76.50;;;;;;4993909;28;20490;-59
2021/11/20 09:19:05;;;;;;;5.50;2.75;;;13.70;76.50;;;;;;4994537;28;20402;-59
2021/11/20 09:21:31;;;;;;;4.40;3.28;;;13.70;76.10;;;;;;4995164;28;20041;-59
2021/11/20 09:23:59;;;;;;;5.10;2.60;;;13.70;75.60;;;;;;4993594;28;20022;-59
2021/11/20 09:26:27;;;;;;;4.68;3.20;;;13.70;75.40;;;;;;4993375;28;20303;-59
2021/11/20 09:28:54;;;;;;;5.93;2.75;;;13.70;75.20;;;;;;4993064;28;20023;-59
2021/11/20 09:31:21;;;;;;;5.35;2.90;;;13.70;75.30;;;;;;4973862;28;20062;-58
2021/11/20 09:33:47;;;;;;;4.07;2.85;;;13.70;75.00;;;;;;4973029;28;20049;-58
2021/11/20 09:36:13;;;;;;;4.22;2.85;;;13.60;74.80;;;;;;4981464;28;20096;-59
2021/11/20 09:38:40;;;;;;;5.70;3.10;;;13.70;75.60;;;;;;4993757;28;20023;-58
2021/11/20 09:41:13;;;;;;;5.10;2.92;;;13.60;74.70;;;;;;4994660;28;20117;-58
2021/11/20 09:43:42;;;;;;;6.28;3.45;;;13.60;74.60;;;;;;4993358;28;20026;-59
2021/11/20 09:46:15;;;;;;;6.70;2.80;;;13.60;74.50;;;;;;4994164;28;20113;-59
2021/11/20 09:48:45;;;;;;;5.10;3.22;;;13.60;74.60;;;;;;4994473;28;20032;-59
2021/11/20 09:51:34;;;;;;;4.23;2.90;;;13.60;74.50;;;;;;4994633;28;20378;-58
2021/11/20 09:54:14;;;;;;;6.30;3.13;;;13.70;74.30;;;;;;4975513;28;20764;-59
2021/11/20 09:56:48;;;;;;;8.95;3.40;;;13.70;74.00;;;;;;4975331;28;20495;-58
2021/11/20 10:00:03;;;;;;;6.43;3.67;;;13.60;73.80;;;;;;4974990;28;20511;-59
2021/11/20 10:03:00;;;;;;;5.82;2.80;;;13.60;74.00;;;;;;4973641;28;20042;-58
2021/11/20 10:05:40;;;;;;;5.53;2.58;;;13.50;73.90;;;;;;4974874;28;20058;-57
2021/11/20 10:08:38;;;;;;;5.18;2.78;;;13.50;73.60;;;;;;4978843;28;20035;-59
2021/11/20 10:11:10;;;;;;;5.25;3.05;;;13.60;73.60;;;;;;4970700;28;20085;-59
2021/11/20 10:13:52;;;;;;;7.30;3.13;;;13.60;73.30;;;;;;4974710;28;20055;-59
2021/11/20 10:16:24;;;;;;;5.53;2.40;;;13.60;73.20;;;;;;4974726;28;20365;-59
2021/11/20 10:18:58;;;;;;;7.25;2.97;;;13.60;72.80;;;;;;4974689;28;20018;-59
2021/11/20 10:22:03;;;;;;;7.10;2.85;;;13.70;72.50;;;;;;4974372;28;20062;-60
2021/11/20 10:24:32;;;;;;;6.10;2.90;;;13.60;71.90;;;;;;4974595;28;20019;-59
2021/11/20 10:27:18;;;;;;;7.78;3.42;;;13.60;72.20;;;;;;4974632;28;20513;-59
2021/11/20 10:30:10;;;;;;;4.13;3.03;;;13.60;71.90;;;;;;4974600;28;20475;-59
2021/11/20 10:32:51;;;;;;;3.47;2.65;;;13.60;71.70;;;;;;4973248;28;20553;-60
2021/11/20 10:35:25;;;;;;;6.30;2.70;;;13.60;71.60;;;;;;4974442;28;20364;-59
2021/11/20 10:38:03;;;;;;;5.80;3.00;;;13.60;71.50;;;;;;4974466;28;20026;-60
2021/11/20 10:40:41;;;;;;;9.75;3.00;;;13.60;71.10;;;;;;4993647;28;20046;-59
2021/11/20 10:43:21;;;;;;;4.60;2.80;;;13.60;70.90;;;;;;4976973;28;20082;-59
2021/11/20 10:45:47;;;;;;;7.00;2.97;;;13.60;71.00;;;;;;4974431;28;20050;-59
2021/11/20 10:48:27;;;;;;;7.55;2.92;;;13.60;71.20;;;;;;4974277;28;20067;-60
2021/11/20 10:51:10;;;;;;;3.05;2.55;;;13.60;70.90;;;;;;4973047;28;20551;-60
2021/11/20 10:54:07;;;;;;;5.72;3.00;;;13.60;70.90;;;;;;4974336;28;20042;-59
2021/11/20 10:56:35;;;;;;;4.75;2.63;;;13.60;70.30;;;;;;4974171;28;20127;-59
2021/11/20 10:59:20;;;;;;;3.15;2.40;;;13.60;70.20;;;;;;4974438;28;20411;-58
2021/11/20 11:02:19;;;;;;;4.50;2.47;;;13.60;70.00;;;;;;4974120;28;20030;-58
2021/11/20 11:05:09;;;;;;;6.32;2.70;;;13.60;69.60;;;;;;4974097;28;20471;-58
2021/11/20 11:08:08;;;;;;;5.93;2.85;;;13.50;69.30;;;;;;4981083;28;20077;-59
2021/11/20 11:10:40;;;;;;;9.25;2.88;;;13.50;69.40;;;;;;4993520;28;20077;-59
2021/11/20 11:13:28;;;;;;;5.95;2.95;;;13.50;69.30;;;;;;4993832;28;20035;-59
2021/11/20 11:16:26;;;;;;;5.03;2.92;;;13.50;69.50;;;;;;4992322;28;20033;-58
2021/11/20 11:19:13;;;;;;;6.72;2.65;;;13.50;69.10;;;;;;4980285;28;20035;-60
2021/11/20 11:21:55;;;;;;;5.45;2.92;;;13.50;69.30;;;;;;4974045;28;20088;-60
2021/11/20 11:24:23;;;;;;;4.45;2.75;;;13.50;68.90;;;;;;4973996;28;20161;-59
2021/11/20 11:26:56;;;;;;;4.95;2.83;;;13.50;68.80;;;;;;4973913;28;20027;-59
2021/11/20 11:29:58;;;;;;;5.40;2.65;;;13.50;68.60;;;;;;4973993;28;20037;-59
2021/11/20 11:32:27;;;;;;;10.18;2.90;;;13.50;68.10;;;;;;4952455;29;20042;-59
2021/11/20 11:35:05;;;;;;;4.53;2.35;;;13.50;67.80;;;;;;4972947;28;20050;-59
2021/11/20 11:37:51;;;;;;;5.28;2.53;;;13.50;67.20;;;;;;4977600;28;20023;-59
2021/11/20 11:41:01;;;;;;;5.85;2.92;;;13.40;66.80;;;;;;4977704;28;20430;-60
2021/11/20 11:43:42;;;;;;;5.50;2.83;;;13.40;66.60;;;;;;4977546;28;20023;-59
2021/11/20 11:46:33;;;;;;;4.25;2.63;;;13.40;66.30;;;;;;4977455;28;20526;-59
2021/11/20 11:49:01;;;;;;;5.85;3.05;;;13.40;65.80;;;;;;4977376;28;20422;-59
2021/11/20 11:51:35;;;;;;;6.60;2.80;;;13.40;65.60;;;;;;4977335;28;20035;-59
2021/11/20 11:54:40;;;;;;;5.85;2.38;;;13.40;65.10;;;;;;4977353;28;20027;-59
2021/11/20 11:57:23;;;;;;;9.75;2.65;;;13.40;64.50;;;;;;4977471;28;20319;-58
2021/11/20 11:59:51;;;;;;;3.88;2.15;;;13.40;64.30;;;;;;4977206;28;20027;-59
2021/11/20 12:02:22;;;;;;;5.65;2.65;;;13.40;64.00;;;;;;4977245;28;20030;-59
2021/11/20 12:05:00;;;;;;;5.72;2.45;;;13.40;64.00;;;;;;4977098;28;20448;-59
2021/11/20 12:07:41;;;;;;;3.97;2.25;;;13.50;64.40;;;;;;4978601;28;20027;-59
2021/11/20 12:10:22;;;;;;;5.30;2.28;;;13.50;63.70;;;;;;4996487;28;20453;-59
2021/11/20 12:13:11;;;;;;;10.57;3.20;;;13.50;63.90;;;;;;4995235;28;20031;-60
2021/11/20 12:16:00;;;;;;;7.80;2.67;;;13.40;63.70;;;;;;4990983;28;20503;-59
2021/11/20 12:18:41;;;;;;;5.07;2.50;;;13.50;64.40;;;;;;4995239;28;20030;-58
2021/11/20 12:21:39;;;;;;;5.45;3.10;;;13.50;64.60;;;;;;4996244;28;20387;-59
2021/11/20 12:24:25;;;;;;;4.57;2.40;;;13.50;64.50;;;;;;4996110;28;20054;-60
2021/11/20 12:26:53;;;;;;;4.97;2.70;;;13.50;64.40;;;;;;4977100;28;20113;-59
2021/11/20 12:30:11;;;;;;;4.68;2.85;;;13.50;64.30;;;;;;4976735;28;20038;-58
2021/11/20 12:32:56;;;;;;;5.07;2.30;;;13.50;63.40;;;;;;4964897;28;20102;-59
2021/11/20 12:35:31;;;;;;;3.65;2.53;;;13.50;63.10;;;;;;4965619;28;20481;-59
2021/11/20 12:38:10;;;;;;;6.43;2.90;;;13.50;62.90;;;;;;4977635;28;20054;-58
2021/11/20 12:40:51;;;;;;;9.43;2.85;;;13.40;62.50;;;;;;4995796;28;20054;-59
2021/11/20 12:43:54;;;;;;;4.50;2.92;;;13.40;61.80;;;;;;4995760;28;20026;-58
2021/11/20 12:46:22;;;;;;;9.80;2.65;;;13.40;61.50;;;;;;4994650;28;20037;-58
2021/11/20 12:49:31;;;;;;;6.70;2.70;;;13.30;61.60;;;;;;4994080;28;20058;-58
2021/11/20 12:52:21;;;;;;;7.07;2.75;;;13.20;61.40;;;;;;4953220;28;20434;-59
2021/11/20 12:54:49;;;;;;;5.68;2.40;;;13.20;62.10;;;;;;4987310;28;20128;-59
2021/11/20 12:57:27;;;;;;;4.57;2.78;;;13.10;62.10;;;;;;4993707;28;20375;-58
2021/11/20 12:59:57;;;;;;;4.35;2.70;;;13.10;62.30;;;;;;4992025;28;20060;-59
2021/11/20 13:02:28;;;;;;;7.60;2.90;;;13.10;62.60;;;;;;4994167;28;20045;-58
2021/11/20 13:04:54;;;;;;;7.15;3.30;;;13.00;62.60;;;;;;4993799;28;20025;-59
2021/11/20 13:07:25;;;;;;;6.25;2.80;;;13.00;62.90;;;;;;4980140;28;20467;-58
2021/11/20 13:10:17;;;;;;;4.65;2.83;;;13.00;62.90;;;;;;4974520;28;20027;-59
2021/11/20 13:12:48;;;;;;;6.95;2.70;;;13.00;62.60;;;;;;4974707;28;20491;-59
2021/11/20 13:15:52;;;;;;;5.55;2.65;;;13.00;62.00;;;;;;4974323;28;20031;-59